sensor_id;sensor_type;location;lat;lon;timestamp;pressure;altitude;pressure_sealevel;temperature;humidity
25944;BME280;13742;49.306;8.636;2023-11-18T00:00:58;101431.53;;;7.55;100.00
25944;BME280;13742;49.306;8.636;2023-11-18T00:01:58;101431.10;;;7.54;100.00
25944;BME280;13742;49.306;8.636;2023-11-18T00:02:58;101429.49;;;7.54;100.00
25944;BME280;13742;49.306;8.636;2023-11-18T00:03:58;101427.27;;;7.55;100.00
25944;BME280;13742;49.306;8.636;2023-11-18T00:04:58;101426.98;;;7.54;100.00
25944;BME280;13742;49.306;8.636;2023-11-18T00:05:58;101430.59;;;7.55;100.00
25944;BME280;13742;49.306;8.636;2023-11-18T00:06:59;101427.75;;;7.55;100.00
25944;BME280;13742;49.306;8.636;2023-11-18T00:07:58;101431.75;;;7.54;100.00
25944;BME280;13742;49.306;8.636;2023-11-18T00:08:58;101429.49;;;7.54;100.00
25944;BME280;13742;49.306;8.636;2023-11-18T00:09:58;101430.15;;;7.54;100.00
25944;BME280;13742;49.306;8.636;2023-11-18T00:10:58;101431.47;;;7.54;100.00
25944;BME280;13742;49.306;8.636;2023-11-18T00:11:58;101432.30;;;7.53;100.00
25944;BME280;13742;49.306;8.636;2023-11-18T00:12:58;101433.13;;;7.53;100.00
25944;BME280;13742;49.306;8.636;2023-11-18T00:13:58;101430.38;;;7.53;100.00
25944;BME280;13742;49.306;8.636;2023-11-18T00:14:58;101430.88;;;7.52;100.00
25944;BME280;13742;49.306;8.636;2023-11-18T00:15:58;101431.98;;;7.53;100.00
25944;BME280;13742;49.306;8.636;2023-11-18T00:16:59;101431.88;;;7.52;100.00
25944;BME280;13742;49.306;8.636;2023-11-18T00:17:58;101433.72;;;7.52;100.00
25944;BME280;13742;49.306;8.636;2023-11-18T00:19:01;101436.20;;;7.51;100.00
25944;BME280;13742;49.306;8.636;2023-11-18T00:19:58;101438.22;;;7.50;100.00
25944;BME280;13742;49.306;8.636;2023-11-18T00:20:58;101443.47;;;7.51;100.00
25944;BME280;13742;49.306;8.636;2023-11-18T00:21:58;101441.51;;;7.50;100.00
25944;BME280;13742;49.306;8.636;2023-11-18T00:22:58;101445.89;;;7.51;100.00
25944;BME280;13742;49.306;8.636;2023-11-18T00:23:58;101447.97;;;7.50;100.00
25944;BME280;13742;49.306;8.636;2023-11-18T00:24:58;101449.36;;;7.50;100.00
25944;BME280;13742;49.306;8.636;2023-11-18T00:25:58;101446.17;;;7.49;100.00
25944;BME280;13742;49.306;8.636;2023-11-18T00:26:58;101449.66;;;7.49;100.00
25944;BME280;13742;49.306;8.636;2023-11-18T00:27:58;101446.38;;;7.48;100.00
25944;BME280;13742;49.306;8.636;2023-11-18T00:28:58;101444.86;;;7.49;100.00
25944;BME280;13742;49.306;8.636;2023-11-18T00:29:58;101443.42;;;7.49;100.00
25944;BME280;13742;49.306;8.636;2023-11-18T00:30:58;101444.90;;;7.49;100.00
25944;BME280;13742;49.306;8.636;2023-11-18T00:31:58;101442.23;;;7.49;100.00
25944;BME280;13742;49.306;8.636;2023-11-18T00:32:58;101441.84;;;7.50;100.00
25944;BME280;13742;49.306;8.636;2023-11-18T00:33:58;101438.44;;;7.49;100.00
25944;BME280;13742;49.306;8.636;2023-11-18T00:34:58;101438.08;;;7.49;100.00
25944;BME280;13742;49.306;8.636;2023-11-18T00:35:59;101434.36;;;7.47;100.00
25944;BME280;13742;49.306;8.636;2023-11-18T00:36:58;101435.67;;;7.47;100.00
25944;BME280;13742;49.306;8.636;2023-11-18T00:37:58;101435.02;;;7.47;100.00
25944;BME280;13742;49.306;8.636;2023-11-18T00:38:58;101437.10;;;7.48;100.00
25944;BME280;13742;49.306;8.636;2023-11-18T00:39:58;101430.09;;;7.47;100.00
25944;BME280;13742;49.306;8.636;2023-11-18T00:40:58;101433.03;;;7.48;100.00
25944;BME280;13742;49.306;8.636;2023-11-18T00:41:58;101442.45;;;7.48;100.00
25944;BME280;13742;49.306;8.636;2023-11-18T00:42:58;101437.73;;;7.47;100.00
25944;BME280;13742;49.306;8.636;2023-11-18T00:43:58;101435.84;;;7.47;100.00
25944;BME280;13742;49.306;8.636;2023-11-18T00:44:58;101438.36;;;7.46;100.00
25944;BME280;13742;49.306;8.636;2023-11-18T00:45:59;101434.67;;;7.46;100.00
25944;BME280;13742;49.306;8.636;2023-11-18T00:46:58;101435.81;;;7.46;100.00
25944;BME280;13742;49.306;8.636;2023-11-18T00:47:58;101433.59;;;7.46;100.00
25944;BME280;13742;49.306;8.636;2023-11-18T00:48:58;101435.98;;;7.46;100.00
25944;BME280;13742;49.306;8.636;2023-11-18T00:50:01;101439.17;;;7.47;100.00
25944;BME280;13742;49.306;8.636;2023-11-18T00:50:58;101438.73;;;7.47;100.00
25944;BME280;13742;49.306;8.636;2023-11-18T00:51:58;101438.80;;;7.45;100.00
25944;BME280;13742;49.306;8.636;2023-11-18T00:52:58;101437.59;;;7.45;100.00
25944;BME280;13742;49.306;8.636;2023-11-18T00:53:58;101433.81;;;7.45;100.00
25944;BME280;13742;49.306;8.636;2023-11-18T00:54:58;101432.59;;;7.45;100.00
25944;BME280;13742;49.306;8.636;2023-11-18T00:55:58;101430.63;;;7.45;100.00
25944;BME280;13742;49.306;8.636;2023-11-18T00:56:58;101434.69;;;7.45;100.00
25944;BME280;13742;49.306;8.636;2023-11-18T00:57:58;101436.50;;;7.45;100.00
25944;BME280;13742;49.306;8.636;2023-11-18T00:58:58;101435.68;;;7.44;100.00
25944;BME280;13742;49.306;8.636;2023-11-18T00:59:58;101437.53;;;7.44;100.00
25944;BME280;13742;49.306;8.636;2023-11-18T01:00:58;101435.77;;;7.44;100.00
25944;BME280;13742;49.306;8.636;2023-11-18T01:01:58;101440.93;;;7.45;100.00
25944;BME280;13742;49.306;8.636;2023-11-18T01:02:58;101442.50;;;7.44;100.00
25944;BME280;13742;49.306;8.636;2023-11-18T01:03:59;101441.10;;;7.44;100.00
25944;BME280;13742;49.306;8.636;2023-11-18T01:04:58;101441.35;;;7.44;100.00
25944;BME280;13742;49.306;8.636;2023-11-18T01:05:58;101443.70;;;7.43;100.00
25944;BME280;13742;49.306;8.636;2023-11-18T01:06:58;101444.11;;;7.44;100.00
25944;BME280;13742;49.306;8.636;2023-11-18T01:07:58;101447.68;;;7.44;100.00
25944;BME280;13742;49.306;8.636;2023-11-18T01:08:58;101447.57;;;7.43;100.00
25944;BME280;13742;49.306;8.636;2023-11-18T01:09:58;101447.05;;;7.42;100.00
25944;BME280;13742;49.306;8.636;2023-11-18T01:10:58;101448.23;;;7.43;100.00
25944;BME280;13742;49.306;8.636;2023-11-18T01:11:58;101453.37;;;7.43;100.00
25944;BME280;13742;49.306;8.636;2023-11-18T01:12:58;101451.89;;;7.43;100.00
25944;BME280;13742;49.306;8.636;2023-11-18T01:13:58;101451.23;;;7.43;100.00
25944;BME280;13742;49.306;8.636;2023-11-18T01:14:58;101452.22;;;7.43;100.00
25944;BME280;13742;49.306;8.636;2023-11-18T01:15:58;101452.88;;;7.43;100.00
25944;BME280;13742;49.306;8.636;2023-11-18T01:16:58;101449.88;;;7.43;100.00
25944;BME280;13742;49.306;8.636;2023-11-18T01:17:58;101455.16;;;7.44;100.00
25944;BME280;13742;49.306;8.636;2023-11-18T01:18:58;101456.42;;;7.45;100.00
25944;BME280;13742;49.306;8.636;2023-11-18T01:19:58;101455.23;;;7.44;100.00
25944;BME280;13742;49.306;8.636;2023-11-18T01:20:58;101455.60;;;7.45;100.00
25944;BME280;13742;49.306;8.636;2023-11-18T01:21:58;101453.76;;;7.44;100.00
25944;BME280;13742;49.306;8.636;2023-11-18T01:22:58;101459.44;;;7.44;100.00
25944;BME280;13742;49.306;8.636;2023-11-18T01:23:58;101455.48;;;7.44;100.00
25944;BME280;13742;49.306;8.636;2023-11-18T01:24:58;101453.64;;;7.44;100.00
25944;BME280;13742;49.306;8.636;2023-11-18T01:25:58;101453.14;;;7.45;100.00
25944;BME280;13742;49.306;8.636;2023-11-18T01:26:59;101452.00;;;7.44;100.00
25944;BME280;13742;49.306;8.636;2023-11-18T01:27:58;101448.97;;;7.43;100.00
25944;BME280;13742;49.306;8.636;2023-11-18T01:28:58;101450.78;;;7.43;100.00
25944;BME280;13742;49.306;8.636;2023-11-18T01:29:58;101450.42;;;7.42;100.00
25944;BME280;13742;49.306;8.636;2023-11-18T01:30:58;101451.50;;;7.42;100.00
25944;BME280;13742;49.306;8.636;2023-11-18T01:31:58;101453.77;;;7.40;100.00
25944;BME280;13742;49.306;8.636;2023-11-18T01:33:00;101448.77;;;7.40;100.00
25944;BME280;13742;49.306;8.636;2023-11-18T01:33:58;101448.98;;;7.40;100.00
25944;BME280;13742;49.306;8.636;2023-11-18T01:34:58;101447.91;;;7.39;100.00
25944;BME280;13742;49.306;8.636;2023-11-18T01:35:58;101448.34;;;7.40;100.00
25944;BME280;13742;49.306;8.636;2023-11-18T01:36:58;101447.53;;;7.40;100.00
25944;BME280;13742;49.306;8.636;2023-11-18T01:37:58;101447.91;;;7.40;100.00
25944;BME280;13742;49.306;8.636;2023-11-18T01:38:58;101447.86;;;7.40;100.00
25944;BME280;13742;49.306;8.636;2023-11-18T01:39:57;101448.55;;;7.41;100.00
25944;BME280;13742;49.306;8.636;2023-11-18T01:40:58;101445.93;;;7.40;100.00
25944;BME280;13742;49.306;8.636;2023-11-18T01:41:59;101448.34;;;7.41;100.00
25944;BME280;13742;49.306;8.636;2023-11-18T01:42:58;101446.95;;;7.41;100.00
25944;BME280;13742;49.306;8.636;2023-11-18T01:43:58;101446.13;;;7.41;100.00
25944;BME280;13742;49.306;8.636;2023-11-18T01:44:59;101447.07;;;7.41;100.00
25944;BME280;13742;49.306;8.636;2023-11-18T01:46:02;101445.93;;;7.40;100.00
25944;BME280;13742;49.306;8.636;2023-11-18T01:46:58;101448.94;;;7.40;100.00
25944;BME280;13742;49.306;8.636;2023-11-18T01:47:58;101451.28;;;7.40;100.00
25944;BME280;13742;49.306;8.636;2023-11-18T01:48:58;101449.55;;;7.39;100.00
25944;BME280;13742;49.306;8.636;2023-11-18T01:49:58;101446.69;;;7.40;100.00
25944;BME280;13742;49.306;8.636;2023-11-18T01:50:58;101447.14;;;7.39;100.00
25944;BME280;13742;49.306;8.636;2023-11-18T01:51:59;101451.73;;;7.40;100.00
25944;BME280;13742;49.306;8.636;2023-11-18T01:52:57;101447.30;;;7.39;100.00
25944;BME280;13742;49.306;8.636;2023-11-18T01:53:58;101448.66;;;7.40;100.00
25944;BME280;13742;49.306;8.636;2023-11-18T01:54:57;101447.25;;;7.39;100.00
25944;BME280;13742;49.306;8.636;2023-11-18T01:55:59;101449.88;;;7.40;100.00
25944;BME280;13742;49.306;8.636;2023-11-18T01:56:57;101449.64;;;7.40;100.00
25944;BME280;13742;49.306;8.636;2023-11-18T01:57:58;101450.30;;;7.40;100.00
25944;BME280;13742;49.306;8.636;2023-11-18T01:58:58;101451.80;;;7.38;100.00
25944;BME280;13742;49.306;8.636;2023-11-18T01:59:58;101451.17;;;7.39;100.00
25944;BME280;13742;49.306;8.636;2023-11-18T02:00:58;101452.88;;;7.38;100.00
25944;BME280;13742;49.306;8.636;2023-11-18T02:01:59;101453.75;;;7.39;100.00
25944;BME280;13742;49.306;8.636;2023-11-18T02:02:57;101451.95;;;7.39;100.00
25944;BME280;13742;49.306;8.636;2023-11-18T02:03:59;101454.79;;;7.39;100.00
25944;BME280;13742;49.306;8.636;2023-11-18T02:04:58;101454.02;;;7.38;100.00
25944;BME280;13742;49.306;8.636;2023-11-18T02:05:57;101451.70;;;7.36;100.00
25944;BME280;13742;49.306;8.636;2023-11-18T02:06:58;101454.11;;;7.37;100.00
25944;BME280;13742;49.306;8.636;2023-11-18T02:08:00;101454.97;;;7.37;100.00
25944;BME280;13742;49.306;8.636;2023-11-18T02:08:58;101450.42;;;7.36;100.00
25944;BME280;13742;49.306;8.636;2023-11-18T02:09:58;101452.73;;;7.35;100.00
25944;BME280;13742;49.306;8.636;2023-11-18T02:11:00;101451.52;;;7.35;100.00
25944;BME280;13742;49.306;8.636;2023-11-18T02:12:00;101451.48;;;7.34;100.00
25944;BME280;13742;49.306;8.636;2023-11-18T02:14:00;101454.55;;;7.32;100.00
25944;BME280;13742;49.306;8.636;2023-11-18T02:15:00;101457.45;;;7.33;100.00
25944;BME280;13742;49.306;8.636;2023-11-18T02:15:58;101460.19;;;7.31;100.00
25944;BME280;13742;49.306;8.636;2023-11-18T02:16:59;101458.16;;;7.29;100.00
25944;BME280;13742;49.306;8.636;2023-11-18T02:17:58;101462.03;;;7.29;100.00
25944;BME280;13742;49.306;8.636;2023-11-18T02:18:58;101460.89;;;7.28;100.00
25944;BME280;13742;49.306;8.636;2023-11-18T02:19:58;101456.06;;;7.27;100.00
25944;BME280;13742;49.306;8.636;2023-11-18T02:20:57;101461.19;;;7.28;100.00
25944;BME280;13742;49.306;8.636;2023-11-18T02:21:57;101463.05;;;7.27;100.00
25944;BME280;13742;49.306;8.636;2023-11-18T02:22:58;101460.80;;;7.26;100.00
25944;BME280;13742;49.306;8.636;2023-11-18T02:23:58;101464.57;;;7.26;100.00
25944;BME280;13742;49.306;8.636;2023-11-18T02:25:00;101467.52;;;7.27;100.00
25944;BME280;13742;49.306;8.636;2023-11-18T02:25:58;101465.60;;;7.26;100.00
25944;BME280;13742;49.306;8.636;2023-11-18T02:26:58;101469.22;;;7.26;100.00
25944;BME280;13742;49.306;8.636;2023-11-18T02:27:57;101470.70;;;7.26;100.00
25944;BME280;13742;49.306;8.636;2023-11-18T02:28:58;101474.93;;;7.26;100.00
25944;BME280;13742;49.306;8.636;2023-11-18T02:29:57;101473.34;;;7.25;100.00
25944;BME280;13742;49.306;8.636;2023-11-18T02:31:03;101471.27;;;7.23;100.00
25944;BME280;13742;49.306;8.636;2023-11-18T02:31:59;101468.02;;;7.21;100.00
25944;BME280;13742;49.306;8.636;2023-11-18T02:33:03;101472.45;;;7.21;100.00
25944;BME280;13742;49.306;8.636;2023-11-18T02:34:00;101471.47;;;7.20;100.00
25944;BME280;13742;49.306;8.636;2023-11-18T02:35:59;101473.99;;;7.19;100.00
25944;BME280;13742;49.306;8.636;2023-11-18T02:37:00;101472.03;;;7.19;100.00
25944;BME280;13742;49.306;8.636;2023-11-18T02:37:58;101471.86;;;7.19;100.00
25944;BME280;13742;49.306;8.636;2023-11-18T02:38:57;101471.00;;;7.19;100.00
25944;BME280;13742;49.306;8.636;2023-11-18T02:40:03;101473.67;;;7.19;100.00
25944;BME280;13742;49.306;8.636;2023-11-18T02:40:58;101474.54;;;7.18;100.00
25944;BME280;13742;49.306;8.636;2023-11-18T02:41:57;101472.03;;;7.18;100.00
25944;BME280;13742;49.306;8.636;2023-11-18T02:42:59;101471.30;;;7.18;100.00
25944;BME280;13742;49.306;8.636;2023-11-18T02:43:58;101468.13;;;7.18;100.00
25944;BME280;13742;49.306;8.636;2023-11-18T02:44:59;101467.38;;;7.19;100.00
25944;BME280;13742;49.306;8.636;2023-11-18T02:45:57;101467.43;;;7.19;100.00
25944;BME280;13742;49.306;8.636;2023-11-18T02:46:58;101469.91;;;7.18;100.00
25944;BME280;13742;49.306;8.636;2023-11-18T02:47:58;101468.16;;;7.16;100.00
25944;BME280;13742;49.306;8.636;2023-11-18T02:48:57;101469.45;;;7.16;100.00
25944;BME280;13742;49.306;8.636;2023-11-18T02:50:05;101467.43;;;7.16;100.00
25944;BME280;13742;49.306;8.636;2023-11-18T02:50:58;101469.47;;;7.17;100.00
25944;BME280;13742;49.306;8.636;2023-11-18T02:51:57;101469.64;;;7.16;100.00
25944;BME280;13742;49.306;8.636;2023-11-18T02:52:58;101464.75;;;7.16;100.00
25944;BME280;13742;49.306;8.636;2023-11-18T02:53:58;101464.38;;;7.16;100.00
25944;BME280;13742;49.306;8.636;2023-11-18T02:54:57;101463.92;;;7.17;100.00
25944;BME280;13742;49.306;8.636;2023-11-18T02:56:02;101461.74;;;7.17;100.00
25944;BME280;13742;49.306;8.636;2023-11-18T02:56:59;101464.81;;;7.18;100.00
25944;BME280;13742;49.306;8.636;2023-11-18T02:57:57;101461.40;;;7.18;100.00
25944;BME280;13742;49.306;8.636;2023-11-18T02:58:57;101460.23;;;7.19;100.00
25944;BME280;13742;49.306;8.636;2023-11-18T03:00:00;101461.06;;;7.19;100.00
25944;BME280;13742;49.306;8.636;2023-11-18T03:01:00;101457.53;;;7.19;100.00
25944;BME280;13742;49.306;8.636;2023-11-18T03:01:57;101459.42;;;7.19;100.00
25944;BME280;13742;49.306;8.636;2023-11-18T03:02:57;101461.52;;;7.19;100.00
25944;BME280;13742;49.306;8.636;2023-11-18T03:03:58;101461.56;;;7.18;100.00
25944;BME280;13742;49.306;8.636;2023-11-18T03:04:58;101458.72;;;7.19;100.00
25944;BME280;13742;49.306;8.636;2023-11-18T03:05:59;101457.28;;;7.19;100.00
25944;BME280;13742;49.306;8.636;2023-11-18T03:07:00;101455.92;;;7.19;100.00
25944;BME280;13742;49.306;8.636;2023-11-18T03:07:58;101455.17;;;7.20;100.00
25944;BME280;13742;49.306;8.636;2023-11-18T03:08:57;101454.35;;;7.20;100.00
25944;BME280;13742;49.306;8.636;2023-11-18T03:09:57;101452.42;;;7.20;100.00
25944;BME280;13742;49.306;8.636;2023-11-18T03:10:58;101452.60;;;7.19;100.00
25944;BME280;13742;49.306;8.636;2023-11-18T03:12:00;101453.17;;;7.19;100.00
25944;BME280;13742;49.306;8.636;2023-11-18T03:12:57;101453.69;;;7.18;100.00
25944;BME280;13742;49.306;8.636;2023-11-18T03:13:57;101450.66;;;7.17;100.00
25944;BME280;13742;49.306;8.636;2023-11-18T03:14:58;101451.72;;;7.18;100.00
25944;BME280;13742;49.306;8.636;2023-11-18T03:15:57;101445.41;;;7.17;100.00
25944;BME280;13742;49.306;8.636;2023-11-18T03:16:58;101446.35;;;7.17;100.00
25944;BME280;13742;49.306;8.636;2023-11-18T03:17:57;101447.28;;;7.18;100.00
25944;BME280;13742;49.306;8.636;2023-11-18T03:18:58;101442.08;;;7.17;100.00
25944;BME280;13742;49.306;8.636;2023-11-18T03:19:57;101444.20;;;7.18;100.00
25944;BME280;13742;49.306;8.636;2023-11-18T03:20:58;101440.17;;;7.18;100.00
25944;BME280;13742;49.306;8.636;2023-11-18T03:21:58;101443.60;;;7.19;100.00
25944;BME280;13742;49.306;8.636;2023-11-18T03:22:58;101443.33;;;7.18;100.00
25944;BME280;13742;49.306;8.636;2023-11-18T03:23:58;101444.59;;;7.19;100.00
25944;BME280;13742;49.306;8.636;2023-11-18T03:24:57;101445.30;;;7.18;100.00
25944;BME280;13742;49.306;8.636;2023-11-18T03:25:58;101447.29;;;7.20;100.00
25944;BME280;13742;49.306;8.636;2023-11-18T03:26:57;101447.78;;;7.20;100.00
25944;BME280;13742;49.306;8.636;2023-11-18T03:27:58;101451.80;;;7.20;100.00
25944;BME280;13742;49.306;8.636;2023-11-18T03:28:57;101449.73;;;7.19;100.00
25944;BME280;13742;49.306;8.636;2023-11-18T03:29:57;101447.59;;;7.19;100.00
25944;BME280;13742;49.306;8.636;2023-11-18T03:30:57;101452.53;;;7.18;100.00
25944;BME280;13742;49.306;8.636;2023-11-18T03:31:58;101451.23;;;7.17;100.00
25944;BME280;13742;49.306;8.636;2023-11-18T03:32:57;101453.52;;;7.18;100.00
25944;BME280;13742;49.306;8.636;2023-11-18T03:33:57;101453.64;;;7.18;100.00
25944;BME280;13742;49.306;8.636;2023-11-18T03:34:59;101456.05;;;7.19;100.00
25944;BME280;13742;49.306;8.636;2023-11-18T03:35:58;101453.06;;;7.18;100.00
25944;BME280;13742;49.306;8.636;2023-11-18T03:36:57;101455.64;;;7.19;100.00
25944;BME280;13742;49.306;8.636;2023-11-18T03:37:57;101456.59;;;7.19;100.00
25944;BME280;13742;49.306;8.636;2023-11-18T03:38:57;101456.36;;;7.18;100.00
25944;BME280;13742;49.306;8.636;2023-11-18T03:39:58;101454.95;;;7.18;100.00
25944;BME280;13742;49.306;8.636;2023-11-18T03:40:58;101459.39;;;7.18;100.00
25944;BME280;13742;49.306;8.636;2023-11-18T03:41:57;101458.66;;;7.18;100.00
25944;BME280;13742;49.306;8.636;2023-11-18T03:42:58;101455.09;;;7.17;100.00
25944;BME280;13742;49.306;8.636;2023-11-18T03:43:58;101450.94;;;7.18;100.00
25944;BME280;13742;49.306;8.636;2023-11-18T03:44:57;101448.75;;;7.18;100.00
25944;BME280;13742;49.306;8.636;2023-11-18T03:45:57;101449.15;;;7.19;100.00
25944;BME280;13742;49.306;8.636;2023-11-18T03:46:57;101447.43;;;7.19;100.00
25944;BME280;13742;49.306;8.636;2023-11-18T03:47:57;101452.27;;;7.20;100.00
25944;BME280;13742;49.306;8.636;2023-11-18T03:48:57;101455.23;;;7.19;100.00
25944;BME280;13742;49.306;8.636;2023-11-18T03:49:58;101454.01;;;7.18;100.00
25944;BME280;13742;49.306;8.636;2023-11-18T03:50:57;101457.78;;;7.18;100.00
25944;BME280;13742;49.306;8.636;2023-11-18T03:51:57;101460.45;;;7.18;100.00
25944;BME280;13742;49.306;8.636;2023-11-18T03:52:58;101454.23;;;7.18;100.00
25944;BME280;13742;49.306;8.636;2023-11-18T03:53:57;101456.16;;;7.18;100.00
25944;BME280;13742;49.306;8.636;2023-11-18T03:54:57;101459.31;;;7.18;100.00
25944;BME280;13742;49.306;8.636;2023-11-18T03:55:57;101460.65;;;7.19;100.00
25944;BME280;13742;49.306;8.636;2023-11-18T03:56:57;101459.83;;;7.19;100.00
25944;BME280;13742;49.306;8.636;2023-11-18T03:57:57;101459.75;;;7.19;100.00
25944;BME280;13742;49.306;8.636;2023-11-18T03:58:57;101458.02;;;7.19;100.00
25944;BME280;13742;49.306;8.636;2023-11-18T03:59:57;101460.80;;;7.20;100.00
25944;BME280;13742;49.306;8.636;2023-11-18T04:00:57;101462.32;;;7.20;100.00
25944;BME280;13742;49.306;8.636;2023-11-18T04:01:58;101462.89;;;7.20;100.00
25944;BME280;13742;49.306;8.636;2023-11-18T04:02:58;101462.95;;;7.19;100.00
25944;BME280;13742;49.306;8.636;2023-11-18T04:03:57;101467.10;;;7.19;100.00
25944;BME280;13742;49.306;8.636;2023-11-18T04:04:58;101466.20;;;7.18;100.00
25944;BME280;13742;49.306;8.636;2023-11-18T04:05:57;101464.23;;;7.18;100.00
25944;BME280;13742;49.306;8.636;2023-11-18T04:06:57;101461.45;;;7.18;100.00
25944;BME280;13742;49.306;8.636;2023-11-18T04:07:57;101461.53;;;7.18;100.00
25944;BME280;13742;49.306;8.636;2023-11-18T04:08:57;101461.66;;;7.17;100.00
25944;BME280;13742;49.306;8.636;2023-11-18T04:09:57;101465.50;;;7.18;100.00
25944;BME280;13742;49.306;8.636;2023-11-18T04:10:58;101461.40;;;7.18;100.00
25944;BME280;13742;49.306;8.636;2023-11-18T04:11:58;101463.94;;;7.19;100.00
25944;BME280;13742;49.306;8.636;2023-11-18T04:12:57;101466.66;;;7.18;100.00
25944;BME280;13742;49.306;8.636;2023-11-18T04:13:57;101462.99;;;7.19;100.00
25944;BME280;13742;49.306;8.636;2023-11-18T04:14:57;101463.92;;;7.20;100.00
25944;BME280;13742;49.306;8.636;2023-11-18T04:15:57;101460.65;;;7.19;100.00
25944;BME280;13742;49.306;8.636;2023-11-18T04:16:57;101457.08;;;7.19;100.00
25944;BME280;13742;49.306;8.636;2023-11-18T04:17:57;101456.91;;;7.19;100.00
25944;BME280;13742;49.306;8.636;2023-11-18T04:18:57;101455.50;;;7.20;100.00
25944;BME280;13742;49.306;8.636;2023-11-18T04:19:57;101456.58;;;7.19;100.00
25944;BME280;13742;49.306;8.636;2023-11-18T04:20:58;101459.53;;;7.19;100.00
25944;BME280;13742;49.306;8.636;2023-11-18T04:21:57;101455.71;;;7.20;100.00
25944;BME280;13742;49.306;8.636;2023-11-18T04:22:57;101455.91;;;7.20;100.00
25944;BME280;13742;49.306;8.636;2023-11-18T04:23:57;101454.27;;;7.20;100.00
25944;BME280;13742;49.306;8.636;2023-11-18T04:24:57;101450.00;;;7.20;100.00
25944;BME280;13742;49.306;8.636;2023-11-18T04:25:57;101448.88;;;7.21;100.00
25944;BME280;13742;49.306;8.636;2023-11-18T04:26:57;101445.56;;;7.20;100.00
25944;BME280;13742;49.306;8.636;2023-11-18T04:27:57;101445.52;;;7.20;100.00
25944;BME280;13742;49.306;8.636;2023-11-18T04:28:58;101439.17;;;7.19;100.00
25944;BME280;13742;49.306;8.636;2023-11-18T04:29:57;101442.09;;;7.19;100.00
25944;BME280;13742;49.306;8.636;2023-11-18T04:30:57;101442.69;;;7.17;100.00
25944;BME280;13742;49.306;8.636;2023-11-18T04:31:59;101443.08;;;7.16;100.00
25944;BME280;13742;49.306;8.636;2023-11-18T04:32:58;101440.77;;;7.15;100.00
25944;BME280;13742;49.306;8.636;2023-11-18T04:33:57;101442.27;;;7.15;100.00
25944;BME280;13742;49.306;8.636;2023-11-18T04:34:57;101441.81;;;7.16;100.00
25944;BME280;13742;49.306;8.636;2023-11-18T04:35:57;101439.64;;;7.15;100.00
25944;BME280;13742;49.306;8.636;2023-11-18T04:36:57;101439.58;;;7.16;100.00
25944;BME280;13742;49.306;8.636;2023-11-18T04:37:57;101440.09;;;7.18;100.00
25944;BME280;13742;49.306;8.636;2023-11-18T04:38:57;101442.14;;;7.18;100.00
25944;BME280;13742;49.306;8.636;2023-11-18T04:39:57;101443.19;;;7.17;100.00
25944;BME280;13742;49.306;8.636;2023-11-18T04:40:57;101442.45;;;7.17;100.00
25944;BME280;13742;49.306;8.636;2023-11-18T04:41:57;101441.39;;;7.16;100.00
25944;BME280;13742;49.306;8.636;2023-11-18T04:42:57;101441.87;;;7.17;100.00
25944;BME280;13742;49.306;8.636;2023-11-18T04:43:58;101445.25;;;7.16;100.00
25944;BME280;13742;49.306;8.636;2023-11-18T04:44:57;101442.81;;;7.14;100.00
25944;BME280;13742;49.306;8.636;2023-11-18T04:45:58;101443.03;;;7.13;100.00
25944;BME280;13742;49.306;8.636;2023-11-18T04:46:57;101448.81;;;7.15;100.00
25944;BME280;13742;49.306;8.636;2023-11-18T04:47:59;101446.42;;;7.14;100.00
25944;BME280;13742;49.306;8.636;2023-11-18T04:48:57;101445.69;;;7.15;100.00
25944;BME280;13742;49.306;8.636;2023-11-18T04:49:57;101446.75;;;7.14;100.00
25944;BME280;13742;49.306;8.636;2023-11-18T04:50:57;101445.48;;;7.15;100.00
25944;BME280;13742;49.306;8.636;2023-11-18T04:51:58;101446.14;;;7.14;100.00
25944;BME280;13742;49.306;8.636;2023-11-18T04:52:57;101443.96;;;7.14;100.00
25944;BME280;13742;49.306;8.636;2023-11-18T04:53:57;101442.81;;;7.14;100.00
25944;BME280;13742;49.306;8.636;2023-11-18T04:54:57;101441.37;;;7.15;100.00
25944;BME280;13742;49.306;8.636;2023-11-18T04:55:58;101440.39;;;7.14;100.00
25944;BME280;13742;49.306;8.636;2023-11-18T04:56:58;101441.05;;;7.15;100.00
25944;BME280;13742;49.306;8.636;2023-11-18T04:57:57;101441.96;;;7.14;100.00
25944;BME280;13742;49.306;8.636;2023-11-18T04:58:57;101444.77;;;7.13;100.00
25944;BME280;13742;49.306;8.636;2023-11-18T04:59:57;101443.88;;;7.12;100.00
25944;BME280;13742;49.306;8.636;2023-11-18T05:00:57;101446.84;;;7.11;100.00
25944;BME280;13742;49.306;8.636;2023-11-18T05:01:57;101442.19;;;7.10;100.00
25944;BME280;13742;49.306;8.636;2023-11-18T05:02:57;101444.32;;;7.10;100.00
25944;BME280;13742;49.306;8.636;2023-11-18T05:03:57;101443.33;;;7.10;100.00
25944;BME280;13742;49.306;8.636;2023-11-18T05:04:57;101443.69;;;7.10;100.00
25944;BME280;13742;49.306;8.636;2023-11-18T05:05:57;101447.51;;;7.10;100.00
25944;BME280;13742;49.306;8.636;2023-11-18T05:06:57;101447.39;;;7.10;100.00
25944;BME280;13742;49.306;8.636;2023-11-18T05:07:57;101447.23;;;7.10;100.00
25944;BME280;13742;49.306;8.636;2023-11-18T05:08:57;101449.41;;;7.10;100.00
25944;BME280;13742;49.306;8.636;2023-11-18T05:09:57;101448.98;;;7.10;100.00
25944;BME280;13742;49.306;8.636;2023-11-18T05:10:57;101450.08;;;7.09;100.00
25944;BME280;13742;49.306;8.636;2023-11-18T05:11:58;101449.66;;;7.09;100.00
25944;BME280;13742;49.306;8.636;2023-11-18T05:12:57;101455.07;;;7.09;100.00
25944;BME280;13742;49.306;8.636;2023-11-18T05:13:57;101451.02;;;7.08;100.00
25944;BME280;13742;49.306;8.636;2023-11-18T05:14:57;101447.50;;;7.08;100.00
25944;BME280;13742;49.306;8.636;2023-11-18T05:15:57;101447.19;;;7.07;100.00